sensor_id;sensor_type;location;lat;lon;timestamp;P1;durP1;ratioP1;P2;durP2;ratioP2
13566;SDS011;6855;48.112;11.298;2022-11-24T00:00:35;16.27;;;2.10;;
13566;SDS011;6855;48.112;11.298;2022-11-24T00:03:02;4.80;;;1.40;;
13566;SDS011;6855;48.112;11.298;2022-11-24T00:05:31;2.77;;;1.30;;
13566;SDS011;6855;48.112;11.298;2022-11-24T00:08:02;3.23;;;1.30;;
13566;SDS011;6855;48.112;11.298;2022-11-24T00:10:29;7.90;;;1.30;;
13566;SDS011;6855;48.112;11.298;2022-11-24T00:12:56;5.87;;;1.50;;
13566;SDS011;6855;48.112;11.298;2022-11-24T00:15:24;4.57;;;1.60;;
13566;SDS011;6855;48.112;11.298;2022-11-24T00:17:51;6.30;;;1.40;;
13566;SDS011;6855;48.112;11.298;2022-11-24T00:20:18;6.93;;;1.20;;
13566;SDS011;6855;48.112;11.298;2022-11-24T00:22:46;5.10;;;1.57;;
13566;SDS011;6855;48.112;11.298;2022-11-24T00:25:14;2.73;;;1.60;;
13566;SDS011;6855;48.112;11.298;2022-11-24T00:27:41;3.27;;;1.73;;
13566;SDS011;6855;48.112;11.298;2022-11-24T00:30:08;2.30;;;1.43;;
13566;SDS011;6855;48.112;11.298;2022-11-24T00:32:36;4.60;;;1.60;;
13566;SDS011;6855;48.112;11.298;2022-11-24T00:35:03;9.80;;;1.47;;
13566;SDS011;6855;48.112;11.298;2022-11-24T00:37:31;10.70;;;1.50;;
13566;SDS011;6855;48.112;11.298;2022-11-24T00:40:00;7.00;;;1.40;;
13566;SDS011;6855;48.112;11.298;2022-11-24T00:42:27;14.50;;;1.87;;
13566;SDS011;6855;48.112;11.298;2022-11-24T00:44:54;7.13;;;1.67;;
13566;SDS011;6855;48.112;11.298;2022-11-24T00:47:21;8.53;;;1.40;;
13566;SDS011;6855;48.112;11.298;2022-11-24T00:49:48;5.13;;;1.00;;
13566;SDS011;6855;48.112;11.298;2022-11-24T00:52:16;3.20;;;1.27;;
13566;SDS011;6855;48.112;11.298;2022-11-24T00:54:43;3.43;;;1.30;;
13566;SDS011;6855;48.112;11.298;2022-11-24T00:57:11;8.20;;;1.83;;
13566;SDS011;6855;48.112;11.298;2022-11-24T00:59:38;5.80;;;1.67;;
13566;SDS011;6855;48.112;11.298;2022-11-24T01:02:05;3.40;;;1.30;;
13566;SDS011;6855;48.112;11.298;2022-11-24T01:04:33;9.73;;;1.50;;
13566;SDS011;6855;48.112;11.298;2022-11-24T01:07:00;3.10;;;1.60;;
13566;SDS011;6855;48.112;11.298;2022-11-24T01:09:27;5.47;;;1.30;;
13566;SDS011;6855;48.112;11.298;2022-11-24T01:11:54;4.43;;;1.57;;
13566;SDS011;6855;48.112;11.298;2022-11-24T01:14:30;5.33;;;1.53;;
13566;SDS011;6855;48.112;11.298;2022-11-24T01:16:57;7.40;;;1.27;;
13566;SDS011;6855;48.112;11.298;2022-11-24T01:19:24;3.53;;;1.10;;
13566;SDS011;6855;48.112;11.298;2022-11-24T01:21:52;5.80;;;1.40;;
13566;SDS011;6855;48.112;11.298;2022-11-24T01:24:19;3.23;;;1.00;;
13566;SDS011;6855;48.112;11.298;2022-11-24T01:26:46;3.33;;;1.40;;
13566;SDS011;6855;48.112;11.298;2022-11-24T01:29:13;5.70;;;1.17;;
13566;SDS011;6855;48.112;11.298;2022-11-24T01:31:42;1.63;;;0.90;;
13566;SDS011;6855;48.112;11.298;2022-11-24T01:34:09;3.37;;;1.40;;
13566;SDS011;6855;48.112;11.298;2022-11-24T01:36:37;3.23;;;0.83;;
13566;SDS011;6855;48.112;11.298;2022-11-24T01:39:04;8.83;;;1.47;;
13566;SDS011;6855;48.112;11.298;2022-11-24T01:41:32;9.90;;;1.50;;
13566;SDS011;6855;48.112;11.298;2022-11-24T01:43:59;3.63;;;1.00;;
13566;SDS011;6855;48.112;11.298;2022-11-24T01:46:27;1.90;;;0.97;;
13566;SDS011;6855;48.112;11.298;2022-11-24T01:48:59;1.67;;;1.03;;
13566;SDS011;6855;48.112;11.298;2022-11-24T01:51:29;2.40;;;1.00;;
13566;SDS011;6855;48.112;11.298;2022-11-24T01:53:58;9.73;;;1.67;;
13566;SDS011;6855;48.112;11.298;2022-11-24T01:56:26;3.87;;;0.93;;
13566;SDS011;6855;48.112;11.298;2022-11-24T01:58:54;5.13;;;1.40;;
13566;SDS011;6855;48.112;11.298;2022-11-24T02:01:23;1.77;;;1.00;;
13566;SDS011;6855;48.112;11.298;2022-11-24T02:03:50;1.00;;;0.70;;
13566;SDS011;6855;48.112;11.298;2022-11-24T02:06:20;3.90;;;0.70;;
13566;SDS011;6855;48.112;11.298;2022-11-24T02:08:49;5.67;;;1.00;;
13566;SDS011;6855;48.112;11.298;2022-11-24T02:11:17;2.50;;;0.97;;
13566;SDS011;6855;48.112;11.298;2022-11-24T02:13:44;2.10;;;1.07;;
13566;SDS011;6855;48.112;11.298;2022-11-24T02:16:12;7.77;;;1.33;;
13566;SDS011;6855;48.112;11.298;2022-11-24T02:18:40;2.43;;;0.80;;
13566;SDS011;6855;48.112;11.298;2022-11-24T02:21:08;1.40;;;1.00;;
13566;SDS011;6855;48.112;11.298;2022-11-24T02:23:38;2.53;;;0.83;;
13566;SDS011;6855;48.112;11.298;2022-11-24T02:26:09;1.43;;;0.87;;
13566;SDS011;6855;48.112;11.298;2022-11-24T02:28:39;1.63;;;0.77;;
13566;SDS011;6855;48.112;11.298;2022-11-24T02:31:06;2.87;;;1.00;;
13566;SDS011;6855;48.112;11.298;2022-11-24T02:33:33;1.63;;;0.83;;
13566;SDS011;6855;48.112;11.298;2022-11-24T02:36:01;3.30;;;0.70;;
13566;SDS011;6855;48.112;11.298;2022-11-24T02:38:29;1.13;;;0.80;;
13566;SDS011;6855;48.112;11.298;2022-11-24T02:40:56;0.70;;;0.70;;
13566;SDS011;6855;48.112;11.298;2022-11-24T02:43:25;0.60;;;0.60;;
13566;SDS011;6855;48.112;11.298;2022-11-24T02:45:56;1.33;;;0.80;;
13566;SDS011;6855;48.112;11.298;2022-11-24T02:48:23;0.80;;;0.60;;
13566;SDS011;6855;48.112;11.298;2022-11-24T02:50:50;2.67;;;0.80;;
13566;SDS011;6855;48.112;11.298;2022-11-24T02:53:17;5.67;;;0.80;;
13566;SDS011;6855;48.112;11.298;2022-11-24T02:55:44;3.77;;;1.10;;
13566;SDS011;6855;48.112;11.298;2022-11-24T02:58:13;4.40;;;1.10;;
13566;SDS011;6855;48.112;11.298;2022-11-24T03:00:41;1.33;;;0.63;;
13566;SDS011;6855;48.112;11.298;2022-11-24T03:03:09;0.60;;;0.50;;
13566;SDS011;6855;48.112;11.298;2022-11-24T03:05:37;0.97;;;0.57;;
13566;SDS011;6855;48.112;11.298;2022-11-24T03:08:04;1.37;;;0.80;;
13566;SDS011;6855;48.112;11.298;2022-11-24T03:10:33;3.43;;;0.60;;
13566;SDS011;6855;48.112;11.298;2022-11-24T03:13:00;0.80;;;0.73;;
13566;SDS011;6855;48.112;11.298;2022-11-24T03:15:27;2.83;;;1.00;;
13566;SDS011;6855;48.112;11.298;2022-11-24T03:17:54;2.97;;;1.10;;
13566;SDS011;6855;48.112;11.298;2022-11-24T03:20:23;2.63;;;0.80;;
13566;SDS011;6855;48.112;11.298;2022-11-24T03:22:52;1.20;;;0.70;;
13566;SDS011;6855;48.112;11.298;2022-11-24T03:25:19;5.90;;;1.13;;
13566;SDS011;6855;48.112;11.298;2022-11-24T03:27:47;1.77;;;0.63;;
13566;SDS011;6855;48.112;11.298;2022-11-24T03:30:14;2.50;;;0.70;;
13566;SDS011;6855;48.112;11.298;2022-11-24T03:32:41;0.87;;;0.60;;
13566;SDS011;6855;48.112;11.298;2022-11-24T03:35:08;2.20;;;0.70;;
13566;SDS011;6855;48.112;11.298;2022-11-24T03:37:37;2.50;;;0.80;;
13566;SDS011;6855;48.112;11.298;2022-11-24T03:40:05;4.83;;;0.83;;
13566;SDS011;6855;48.112;11.298;2022-11-24T03:42:32;2.07;;;0.73;;
13566;SDS011;6855;48.112;11.298;2022-11-24T03:44:59;0.73;;;0.60;;
13566;SDS011;6855;48.112;11.298;2022-11-24T03:47:26;0.97;;;0.70;;
13566;SDS011;6855;48.112;11.298;2022-11-24T03:49:54;0.80;;;0.70;;
13566;SDS011;6855;48.112;11.298;2022-11-24T03:52:21;1.47;;;0.70;;
13566;SDS011;6855;48.112;11.298;2022-11-24T03:54:52;2.87;;;0.70;;
13566;SDS011;6855;48.112;11.298;2022-11-24T03:57:19;2.57;;;0.73;;
13566;SDS011;6855;48.112;11.298;2022-11-24T03:59:46;1.77;;;1.03;;
13566;SDS011;6855;48.112;11.298;2022-11-24T04:02:13;9.73;;;1.20;;
13566;SDS011;6855;48.112;11.298;2022-11-24T04:04:40;1.20;;;0.80;;
13566;SDS011;6855;48.112;11.298;2022-11-24T04:07:07;3.27;;;1.17;;
13566;SDS011;6855;48.112;11.298;2022-11-24T04:09:35;2.70;;;0.80;;
13566;SDS011;6855;48.112;11.298;2022-11-24T04:12:03;1.23;;;0.87;;
13566;SDS011;6855;48.112;11.298;2022-11-24T04:14:49;1.77;;;0.70;;
13566;SDS011;6855;48.112;11.298;2022-11-24T04:17:16;4.27;;;0.90;;
13566;SDS011;6855;48.112;11.298;2022-11-24T04:19:43;2.30;;;0.80;;
13566;SDS011;6855;48.112;11.298;2022-11-24T04:22:10;0.97;;;0.73;;
13566;SDS011;6855;48.112;11.298;2022-11-24T04:24:37;3.47;;;1.07;;
13566;SDS011;6855;48.112;11.298;2022-11-24T04:27:06;2.03;;;0.90;;
13566;SDS011;6855;48.112;11.298;2022-11-24T04:29:33;6.97;;;1.30;;
13566;SDS011;6855;48.112;11.298;2022-11-24T04:32:00;3.33;;;0.90;;
13566;SDS011;6855;48.112;11.298;2022-11-24T04:34:28;3.37;;;1.20;;
13566;SDS011;6855;48.112;11.298;2022-11-24T04:36:55;4.03;;;0.93;;
13566;SDS011;6855;48.112;11.298;2022-11-24T04:39:22;3.70;;;1.10;;
13566;SDS011;6855;48.112;11.298;2022-11-24T04:41:49;3.67;;;0.87;;
13566;SDS011;6855;48.112;11.298;2022-11-24T04:44:18;3.30;;;1.20;;
13566;SDS011;6855;48.112;11.298;2022-11-24T04:46:45;5.70;;;1.10;;
13566;SDS011;6855;48.112;11.298;2022-11-24T04:49:12;4.97;;;1.23;;
13566;SDS011;6855;48.112;11.298;2022-11-24T04:51:39;5.40;;;1.23;;
13566;SDS011;6855;48.112;11.298;2022-11-24T04:54:08;5.80;;;1.27;;
13566;SDS011;6855;48.112;11.298;2022-11-24T04:56:35;11.80;;;1.30;;
13566;SDS011;6855;48.112;11.298;2022-11-24T04:59:02;3.63;;;1.00;;
13566;SDS011;6855;48.112;11.298;2022-11-24T05:01:31;6.10;;;1.40;;
13566;SDS011;6855;48.112;11.298;2022-11-24T05:03:58;6.10;;;1.40;;
13566;SDS011;6855;48.112;11.298;2022-11-24T05:06:25;6.00;;;1.40;;
13566;SDS011;6855;48.112;11.298;2022-11-24T05:08:53;9.00;;;1.33;;
13566;SDS011;6855;48.112;11.298;2022-11-24T05:11:20;8.23;;;1.50;;
13566;SDS011;6855;48.112;11.298;2022-11-24T05:13:46;6.50;;;1.47;;
13566;SDS011;6855;48.112;11.298;2022-11-24T05:16:14;6.67;;;1.53;;
13566;SDS011;6855;48.112;11.298;2022-11-24T05:18:42;4.43;;;1.90;;
13566;SDS011;6855;48.112;11.298;2022-11-24T05:21:10;3.13;;;1.50;;
13566;SDS011;6855;48.112;11.298;2022-11-24T05:23:37;6.10;;;1.40;;
13566;SDS011;6855;48.112;11.298;2022-11-24T05:26:04;4.30;;;1.20;;
13566;SDS011;6855;48.112;11.298;2022-11-24T05:28:33;6.27;;;1.10;;
13566;SDS011;6855;48.112;11.298;2022-11-24T05:31:03;7.73;;;1.70;;
13566;SDS011;6855;48.112;11.298;2022-11-24T05:33:31;3.83;;;1.03;;
13566;SDS011;6855;48.112;11.298;2022-11-24T05:36:00;6.30;;;1.60;;
13566;SDS011;6855;48.112;11.298;2022-11-24T05:38:28;10.17;;;1.53;;
13566;SDS011;6855;48.112;11.298;2022-11-24T05:40:58;13.33;;;1.70;;
13566;SDS011;6855;48.112;11.298;2022-11-24T05:43:25;5.30;;;1.10;;
13566;SDS011;6855;48.112;11.298;2022-11-24T05:45:53;9.33;;;1.80;;
13566;SDS011;6855;48.112;11.298;2022-11-24T05:48:20;3.17;;;1.43;;
13566;SDS011;6855;48.112;11.298;2022-11-24T05:50:51;10.93;;;2.17;;
13566;SDS011;6855;48.112;11.298;2022-11-24T05:53:20;9.03;;;1.67;;
13566;SDS011;6855;48.112;11.298;2022-11-24T05:55:47;9.43;;;1.73;;
13566;SDS011;6855;48.112;11.298;2022-11-24T05:58:14;5.13;;;1.90;;
13566;SDS011;6855;48.112;11.298;2022-11-24T06:00:41;5.53;;;1.40;;
13566;SDS011;6855;48.112;11.298;2022-11-24T06:03:09;5.30;;;1.40;;
13566;SDS011;6855;48.112;11.298;2022-11-24T06:05:36;10.48;;;1.50;;
13566;SDS011;6855;48.112;11.298;2022-11-24T06:08:04;7.47;;;1.90;;
13566;SDS011;6855;48.112;11.298;2022-11-24T06:10:32;11.40;;;3.30;;
13566;SDS011;6855;48.112;11.298;2022-11-24T06:13:02;5.47;;;1.70;;
13566;SDS011;6855;48.112;11.298;2022-11-24T06:15:30;4.87;;;1.47;;
13566;SDS011;6855;48.112;11.298;2022-11-24T06:17:57;8.90;;;1.80;;
13566;SDS011;6855;48.112;11.298;2022-11-24T06:20:24;6.33;;;1.50;;
13566;SDS011;6855;48.112;11.298;2022-11-24T06:22:51;5.68;;;1.70;;
13566;SDS011;6855;48.112;11.298;2022-11-24T06:25:19;4.83;;;1.20;;
13566;SDS011;6855;48.112;11.298;2022-11-24T06:27:47;5.70;;;1.20;;
13566;SDS011;6855;48.112;11.298;2022-11-24T06:30:15;8.37;;;1.60;;
13566;SDS011;6855;48.112;11.298;2022-11-24T06:32:42;5.53;;;1.20;;
13566;SDS011;6855;48.112;11.298;2022-11-24T06:35:10;11.43;;;1.53;;
13566;SDS011;6855;48.112;11.298;2022-11-24T06:37:37;8.37;;;1.63;;
13566;SDS011;6855;48.112;11.298;2022-11-24T06:40:05;9.17;;;1.47;;
13566;SDS011;6855;48.112;11.298;2022-11-24T06:42:34;13.17;;;2.00;;
13566;SDS011;6855;48.112;11.298;2022-11-24T06:45:03;7.00;;;1.40;;
13566;SDS011;6855;48.112;11.298;2022-11-24T06:47:30;5.80;;;1.23;;
13566;SDS011;6855;48.112;11.298;2022-11-24T06:49:57;10.17;;;1.70;;
13566;SDS011;6855;48.112;11.298;2022-11-24T06:52:24;8.53;;;1.30;;
13566;SDS011;6855;48.112;11.298;2022-11-24T06:54:51;4.40;;;1.50;;
13566;SDS011;6855;48.112;11.298;2022-11-24T06:57:19;14.33;;;1.60;;
13566;SDS011;6855;48.112;11.298;2022-11-24T06:59:46;7.13;;;1.33;;
13566;SDS011;6855;48.112;11.298;2022-11-24T07:02:14;11.50;;;1.03;;
13566;SDS011;6855;48.112;11.298;2022-11-24T07:04:42;5.07;;;1.20;;
13566;SDS011;6855;48.112;11.298;2022-11-24T07:07:09;8.13;;;1.60;;
13566;SDS011;6855;48.112;11.298;2022-11-24T07:09:36;4.30;;;1.37;;
13566;SDS011;6855;48.112;11.298;2022-11-24T07:12:04;6.70;;;1.17;;
13566;SDS011;6855;48.112;11.298;2022-11-24T07:14:31;11.63;;;1.60;;
13566;SDS011;6855;48.112;11.298;2022-11-24T07:16:58;4.97;;;1.43;;
13566;SDS011;6855;48.112;11.298;2022-11-24T07:19:27;7.83;;;1.53;;
13566;SDS011;6855;48.112;11.298;2022-11-24T07:21:55;6.80;;;2.40;;
13566;SDS011;6855;48.112;11.298;2022-11-24T07:24:22;10.53;;;1.80;;
13566;SDS011;6855;48.112;11.298;2022-11-24T07:26:49;10.37;;;1.23;;
13566;SDS011;6855;48.112;11.298;2022-11-24T07:29:16;11.37;;;2.27;;
13566;SDS011;6855;48.112;11.298;2022-11-24T07:31:43;16.73;;;2.50;;
13566;SDS011;6855;48.112;11.298;2022-11-24T07:34:11;3.87;;;1.40;;
13566;SDS011;6855;48.112;11.298;2022-11-24T07:36:40;12.30;;;1.77;;
13566;SDS011;6855;48.112;11.298;2022-11-24T07:39:09;4.03;;;1.00;;
13566;SDS011;6855;48.112;11.298;2022-11-24T07:41:36;6.90;;;1.40;;
13566;SDS011;6855;48.112;11.298;2022-11-24T07:44:03;5.83;;;1.40;;
13566;SDS011;6855;48.112;11.298;2022-11-24T07:46:30;9.37;;;1.77;;
13566;SDS011;6855;48.112;11.298;2022-11-24T07:48:58;15.23;;;1.93;;
13566;SDS011;6855;48.112;11.298;2022-11-24T07:51:25;6.37;;;2.33;;
13566;SDS011;6855;48.112;11.298;2022-11-24T07:53:53;15.80;;;2.20;;
13566;SDS011;6855;48.112;11.298;2022-11-24T07:56:21;10.17;;;2.03;;
13566;SDS011;6855;48.112;11.298;2022-11-24T07:58:48;5.37;;;1.63;;
13566;SDS011;6855;48.112;11.298;2022-11-24T08:01:16;10.30;;;1.90;;
13566;SDS011;6855;48.112;11.298;2022-11-24T08:03:43;5.03;;;1.37;;
13566;SDS011;6855;48.112;11.298;2022-11-24T08:06:11;3.57;;;1.20;;
13566;SDS011;6855;48.112;11.298;2022-11-24T08:08:38;7.23;;;1.83;;
13566;SDS011;6855;48.112;11.298;2022-11-24T08:11:08;17.97;;;1.70;;
13566;SDS011;6855;48.112;11.298;2022-11-24T08:13:35;5.00;;;1.47;;
13566;SDS011;6855;48.112;11.298;2022-11-24T08:16:03;3.97;;;1.57;;
13566;SDS011;6855;48.112;11.298;2022-11-24T08:18:30;7.57;;;1.83;;
13566;SDS011;6855;48.112;11.298;2022-11-24T08:20:58;13.07;;;1.90;;
13566;SDS011;6855;48.112;11.298;2022-11-24T08:23:25;4.43;;;1.90;;
13566;SDS011;6855;48.112;11.298;2022-11-24T08:25:53;10.83;;;1.87;;
13566;SDS011;6855;48.112;11.298;2022-11-24T08:28:22;5.87;;;2.00;;
13566;SDS011;6855;48.112;11.298;2022-11-24T08:30:49;6.93;;;1.80;;
13566;SDS011;6855;48.112;11.298;2022-11-24T08:33:17;13.93;;;1.80;;
13566;SDS011;6855;48.112;11.298;2022-11-24T08:35:44;7.27;;;2.20;;
13566;SDS011;6855;48.112;11.298;2022-11-24T08:38:11;5.03;;;2.00;;
13566;SDS011;6855;48.112;11.298;2022-11-24T08:40:41;8.47;;;1.60;;
13566;SDS011;6855;48.112;11.298;2022-11-24T08:43:08;7.30;;;2.10;;
13566;SDS011;6855;48.112;11.298;2022-11-24T08:45:36;12.13;;;2.60;;
13566;SDS011;6855;48.112;11.298;2022-11-24T08:48:04;5.87;;;1.70;;
13566;SDS011;6855;48.112;11.298;2022-11-24T08:50:31;8.40;;;1.40;;
13566;SDS011;6855;48.112;11.298;2022-11-24T08:52:59;4.03;;;1.20;;
13566;SDS011;6855;48.112;11.298;2022-11-24T08:55:26;8.67;;;1.30;;
13566;SDS011;6855;48.112;11.298;2022-11-24T08:57:54;6.07;;;1.40;;
13566;SDS011;6855;48.112;11.298;2022-11-24T09:00:21;7.80;;;1.37;;
13566;SDS011;6855;48.112;11.298;2022-11-24T09:02:54;9.20;;;1.60;;
13566;SDS011;6855;48.112;11.298;2022-11-24T09:05:21;10.90;;;1.40;;
13566;SDS011;6855;48.112;11.298;2022-11-24T09:07:48;5.53;;;1.10;;
13566;SDS011;6855;48.112;11.298;2022-11-24T09:10:15;3.33;;;1.00;;
13566;SDS011;6855;48.112;11.298;2022-11-24T09:12:43;7.27;;;2.00;;
13566;SDS011;6855;48.112;11.298;2022-11-24T09:15:11;6.10;;;1.73;;
13566;SDS011;6855;48.112;11.298;2022-11-24T09:17:40;9.43;;;1.20;;
13566;SDS011;6855;48.112;11.298;2022-11-24T09:20:09;2.20;;;0.97;;
13566;SDS011;6855;48.112;11.298;2022-11-24T09:22:36;3.73;;;1.47;;
13566;SDS011;6855;48.112;11.298;2022-11-24T09:25:05;5.67;;;1.10;;
13566;SDS011;6855;48.112;11.298;2022-11-24T09:27:33;6.13;;;1.47;;
13566;SDS011;6855;48.112;11.298;2022-11-24T09:30:00;3.27;;;1.40;;
13566;SDS011;6855;48.112;11.298;2022-11-24T09:32:28;5.67;;;1.50;;
13566;SDS011;6855;48.112;11.298;2022-11-24T09:34:55;5.63;;;1.30;;
13566;SDS011;6855;48.112;11.298;2022-11-24T09:37:24;7.20;;;1.70;;
13566;SDS011;6855;48.112;11.298;2022-11-24T09:39:51;5.50;;;1.53;;
13566;SDS011;6855;48.112;11.298;2022-11-24T09:42:20;4.10;;;1.20;;
13566;SDS011;6855;48.112;11.298;2022-11-24T09:47:40;4.30;;;0.93;;
13566;SDS011;6855;48.112;11.298;2022-11-24T09:50:09;3.63;;;1.13;;
13566;SDS011;6855;48.112;11.298;2022-11-24T09:52:41;7.13;;;1.53;;
13566;SDS011;6855;48.112;11.298;2022-11-24T09:55:22;7.23;;;1.50;;
13566;SDS011;6855;48.112;11.298;2022-11-24T09:57:53;5.10;;;1.60;;
13566;SDS011;6855;48.112;11.298;2022-11-24T10:00:22;4.07;;;1.17;;
13566;SDS011;6855;48.112;11.298;2022-11-24T10:02:49;2.87;;;1.50;;
13566;SDS011;6855;48.112;11.298;2022-11-24T10:05:16;9.57;;;1.73;;
13566;SDS011;6855;48.112;11.298;2022-11-24T10:07:49;2.93;;;1.40;;
13566;SDS011;6855;48.112;11.298;2022-11-24T10:10:21;3.33;;;1.20;;
13566;SDS011;6855;48.112;11.298;2022-11-24T10:12:53;4.83;;;1.30;;
13566;SDS011;6855;48.112;11.298;2022-11-24T10:15:27;8.83;;;1.47;;
13566;SDS011;6855;48.112;11.298;2022-11-24T10:20:40;4.40;;;0.97;;
13566;SDS011;6855;48.112;11.298;2022-11-24T10:23:16;8.03;;;1.27;;
13566;SDS011;6855;48.112;11.298;2022-11-24T10:25:46;6.50;;;1.40;;
13566;SDS011;6855;48.112;11.298;2022-11-24T10:28:16;4.27;;;1.23;;
13566;SDS011;6855;48.112;11.298;2022-11-24T10:30:43;3.80;;;1.00;;
13566;SDS011;6855;48.112;11.298;2022-11-24T10:33:15;4.50;;;1.10;;
13566;SDS011;6855;48.112;11.298;2022-11-24T10:35:43;4.60;;;1.50;;
13566;SDS011;6855;48.112;11.298;2022-11-24T10:38:15;2.80;;;1.57;;
13566;SDS011;6855;48.112;11.298;2022-11-24T10:40:51;3.43;;;1.10;;
13566;SDS011;6855;48.112;11.298;2022-11-24T10:43:19;6.83;;;1.20;;
13566;SDS011;6855;48.112;11.298;2022-11-24T10:45:47;3.83;;;1.13;;
13566;SDS011;6855;48.112;11.298;2022-11-24T10:48:16;3.03;;;1.00;;
13566;SDS011;6855;48.112;11.298;2022-11-24T10:50:45;6.53;;;1.20;;
13566;SDS011;6855;48.112;11.298;2022-11-24T10:53:15;3.43;;;1.40;;
13566;SDS011;6855;48.112;11.298;2022-11-24T10:55:55;6.10;;;2.40;;
13566;SDS011;6855;48.112;11.298;2022-11-24T10:58:24;2.97;;;1.37;;
13566;SDS011;6855;48.112;11.298;2022-11-24T11:00:51;3.73;;;1.17;;
13566;SDS011;6855;48.112;11.298;2022-11-24T11:03:19;3.13;;;0.90;;
13566;SDS011;6855;48.112;11.298;2022-11-24T11:05:47;4.70;;;1.17;;
13566;SDS011;6855;48.112;11.298;2022-11-24T11:08:25;6.27;;;1.43;;
13566;SDS011;6855;48.112;11.298;2022-11-24T11:11:12;7.00;;;1.47;;
13566;SDS011;6855;48.112;11.298;2022-11-24T11:13:45;8.83;;;1.50;;
13566;SDS011;6855;48.112;11.298;2022-11-24T11:16:21;4.77;;;1.40;;
13566;SDS011;6855;48.112;11.298;2022-11-24T11:18:49;5.10;;;1.10;;
13566;SDS011;6855;48.112;11.298;2022-11-24T11:21:23;4.50;;;1.20;;
13566;SDS011;6855;48.112;11.298;2022-11-24T11:23:53;6.37;;;1.50;;
13566;SDS011;6855;48.112;11.298;2022-11-24T11:26:29;4.13;;;1.23;;
13566;SDS011;6855;48.112;11.298;2022-11-24T11:28:57;3.63;;;0.90;;
13566;SDS011;6855;48.112;11.298;2022-11-24T11:31:25;3.97;;;1.00;;
13566;SDS011;6855;48.112;11.298;2022-11-24T11:33:54;5.10;;;1.60;;
13566;SDS011;6855;48.112;11.298;2022-11-24T11:36:21;2.40;;;0.90;;
13566;SDS011;6855;48.112;11.298;2022-11-24T11:38:49;5.83;;;1.73;;
13566;SDS011;6855;48.112;11.298;2022-11-24T11:41:19;2.70;;;0.80;;
13566;SDS011;6855;48.112;11.298;2022-11-24T11:43:49;1.60;;;0.93;;
13566;SDS011;6855;48.112;11.298;2022-11-24T11:46:18;3.70;;;1.47;;
13566;SDS011;6855;48.112;11.298;2022-11-24T11:48:46;3.90;;;1.10;;
13566;SDS011;6855;48.112;11.298;2022-11-24T11:54:02;2.20;;;0.97;;
13566;SDS011;6855;48.112;11.298;2022-11-24T11:56:35;1.63;;;0.63;;
13566;SDS011;6855;48.112;11.298;2022-11-24T11:59:13;5.60;;;0.80;;
13566;SDS011;6855;48.112;11.298;2022-11-24T12:01:57;1.37;;;1.03;;
13566;SDS011;6855;48.112;11.298;2022-11-24T12:04:33;2.00;;;0.80;;
13566;SDS011;6855;48.112;11.298;2022-11-24T12:09:49;1.73;;;1.00;;
13566;SDS011;6855;48.112;11.298;2022-11-24T12:12:41;1.93;;;0.83;;
13566;SDS011;6855;48.112;11.298;2022-11-24T12:15:14;2.00;;;0.80;;
13566;SDS011;6855;48.112;11.298;2022-11-24T12:21:05;3.93;;;1.00;;
13566;SDS011;6855;48.112;11.298;2022-11-24T12:23:52;3.20;;;1.03;;
13566;SDS011;6855;48.112;11.298;2022-11-24T12:26:24;3.50;;;1.33;;
13566;SDS011;6855;48.112;11.298;2022-11-24T12:29:04;4.47;;;1.37;;
13566;SDS011;6855;48.112;11.298;2022-11-24T12:31:56;3.30;;;1.50;;
13566;SDS011;6855;48.112;11.298;2022-11-24T12:35:24;2.93;;;1.10;;
13566;SDS011;6855;48.112;11.298;2022-11-24T13:25:46;3.93;;;1.00;;
13566;SDS011;6855;48.112;11.298;2022-11-24T13:58:54;2.90;;;1.20;;
13566;SDS011;6855;48.112;11.298;2022-11-24T14:00:17;8.70;;;1.40;;
13566;SDS011;6855;48.112;11.298;2022-11-24T14:02:59;5.23;;;2.20;;
13566;SDS011;6855;48.112;11.298;2022-11-24T14:08:48;7.10;;;1.20;;
13566;SDS011;6855;48.112;11.298;2022-11-24T14:13:54;4.53;;;0.90;;
13566;SDS011;6855;48.112;11.298;2022-11-24T14:16:23;5.03;;;0.90;;
13566;SDS011;6855;48.112;11.298;2022-11-24T14:18:50;2.10;;;0.90;;
13566;SDS011;6855;48.112;11.298;2022-11-24T14:21:21;3.70;;;1.00;;
13566;SDS011;6855;48.112;11.298;2022-11-24T14:23:54;1.77;;;0.80;;
13566;SDS011;6855;48.112;11.298;2022-11-24T14:26:31;3.40;;;1.10;;
13566;SDS011;6855;48.112;11.298;2022-11-24T14:29:02;5.07;;;1.03;;
13566;SDS011;6855;48.112;11.298;2022-11-24T14:31:33;6.67;;;1.57;;
13566;SDS011;6855;48.112;11.298;2022-11-24T14:36:46;2.93;;;1.07;;
13566;SDS011;6855;48.112;11.298;2022-11-24T14:39:15;2.90;;;1.07;;
13566;SDS011;6855;48.112;11.298;2022-11-24T14:41:48;2.97;;;1.00;;
13566;SDS011;6855;48.112;11.298;2022-11-24T14:44:18;2.33;;;1.20;;
13566;SDS011;6855;48.112;11.298;2022-11-24T14:46:49;3.77;;;0.90;;
13566;SDS011;6855;48.112;11.298;2022-11-24T14:49:17;4.40;;;1.30;;
13566;SDS011;6855;48.112;11.298;2022-11-24T14:51:47;1.10;;;1.00;;
13566;SDS011;6855;48.112;11.298;2022-11-24T14:54:17;0.90;;;0.80;;
13566;SDS011;6855;48.112;11.298;2022-11-24T14:56:54;6.80;;;1.57;;
13566;SDS011;6855;48.112;11.298;2022-11-24T14:59:23;2.50;;;1.40;;
13566;SDS011;6855;48.112;11.298;2022-11-24T15:01:55;8.23;;;1.23;;
13566;SDS011;6855;48.112;11.298;2022-11-24T15:04:23;6.00;;;1.90;;
13566;SDS011;6855;48.112;11.298;2022-11-24T15:07:01;2.40;;;1.00;;
13566;SDS011;6855;48.112;11.298;2022-11-24T15:09:29;3.10;;;1.53;;
13566;SDS011;6855;48.112;11.298;2022-11-24T15:12:04;2.27;;;1.23;;
13566;SDS011;6855;48.112;11.298;2022-11-24T15:14:35;5.73;;;1.43;;
13566;SDS011;6855;48.112;11.298;2022-11-24T15:17:06;3.70;;;1.33;;
13566;SDS011;6855;48.112;11.298;2022-11-24T15:19:40;5.50;;;1.40;;
13566;SDS011;6855;48.112;11.298;2022-11-24T15:22:26;1.97;;;1.03;;
13566;SDS011;6855;48.112;11.298;2022-11-24T15:24:53;8.27;;;2.17;;
13566;SDS011;6855;48.112;11.298;2022-11-24T15:27:20;2.10;;;1.07;;
13566;SDS011;6855;48.112;11.298;2022-11-24T15:29:48;2.33;;;1.03;;
13566;SDS011;6855;48.112;11.298;2022-11-24T15:32:17;4.90;;;1.20;;
13566;SDS011;6855;48.112;11.298;2022-11-24T15:34:44;4.20;;;1.60;;
13566;SDS011;6855;48.112;11.298;2022-11-24T15:37:11;7.50;;;1.60;;
13566;SDS011;6855;48.112;11.298;2022-11-24T15:39:38;4.27;;;1.57;;
13566;SDS011;6855;48.112;11.298;2022-11-24T15:42:07;5.27;;;2.50;;
13566;SDS011;6855;48.112;11.298;2022-11-24T15:44:34;3.27;;;1.77;;
13566;SDS011;6855;48.112;11.298;2022-11-24T15:47:01;7.20;;;1.90;;
13566;SDS011;6855;48.112;11.298;2022-11-24T15:49:30;6.97;;;2.23;;
13566;SDS011;6855;48.112;11.298;2022-11-24T15:51:57;8.10;;;3.60;;
13566;SDS011;6855;48.112;11.298;2022-11-24T15:54:24;6.80;;;2.77;;
13566;SDS011;6855;48.112;11.298;2022-11-24T15:56:53;5.90;;;2.30;;
13566;SDS011;6855;48.112;11.298;2022-11-24T15:59:20;5.35;;;2.00;;
13566;SDS011;6855;48.112;11.298;2022-11-24T16:01:48;5.87;;;2.40;;
13566;SDS011;6855;48.112;11.298;2022-11-24T16:04:15;10.30;;;2.00;;
13566;SDS011;6855;48.112;11.298;2022-11-24T16:06:44;4.07;;;1.90;;
13566;SDS011;6855;48.112;11.298;2022-11-24T16:09:13;2.77;;;1.40;;
13566;SDS011;6855;48.112;11.298;2022-11-24T16:11:41;3.70;;;1.50;;
13566;SDS011;6855;48.112;11.298;2022-11-24T16:14:08;5.93;;;1.60;;
13566;SDS011;6855;48.112;11.298;2022-11-24T16:16:35;3.87;;;1.77;;
13566;SDS011;6855;48.112;11.298;2022-11-24T16:19:04;3.40;;;1.93;;
13566;SDS011;6855;48.112;11.298;2022-11-24T16:21:31;5.90;;;2.23;;
13566;SDS011;6855;48.112;11.298;2022-11-24T16:24:00;6.33;;;2.07;;
13566;SDS011;6855;48.112;11.298;2022-11-24T16:26:27;7.50;;;2.03;;
13566;SDS011;6855;48.112;11.298;2022-11-24T16:28:55;4.03;;;2.03;;
13566;SDS011;6855;48.112;11.298;2022-11-24T16:31:25;5.20;;;2.10;;
13566;SDS011;6855;48.112;11.298;2022-11-24T16:33:52;2.60;;;1.50;;
13566;SDS011;6855;48.112;11.298;2022-11-24T16:36:19;7.33;;;1.80;;